Time;durP1;ratioP1;P1;durP2;ratioP2;P2;SDS_P1;SDS_P2;PMS_P1;PMS_P2;Temp;Humidity;BMP_temperature;BMP_pressure;BME280_temperature;BME280_humidity;BME280_pressure;Samples;Min_cycle;Max_cycle;Signal;HPM_P1;HPM_P2
2021/08/17 00:01:22;;;;;;;11.23;5.30;;;16.90;99.90;;;17.33;66.66;101711.44;5073250;28;20041;-69
2021/08/17 00:03:51;;;;;;;10.38;5.63;;;17.00;99.90;;;17.30;66.36;101716.84;5073178;28;20055;-68
2021/08/17 00:06:19;;;;;;;14.27;5.35;;;16.90;99.90;;;17.15;66.55;101709.97;5073113;28;20048;-69
2021/08/17 00:08:48;;;;;;;13.68;5.95;;;16.90;99.90;;;17.21;66.83;101709.00;5073197;28;20064;-68
2021/08/17 00:11:16;;;;;;;9.50;5.32;;;16.90;99.90;;;17.32;66.80;101707.00;5073375;28;20060;-68
2021/08/17 00:13:47;;;;;;;14.98;6.03;;;16.90;99.90;;;17.42;66.42;101738.03;5073126;28;20068;-68
2021/08/17 00:16:17;;;;;;;;;;;17.00;99.90;;;17.33;67.17;101708.75;5073868;28;20072;-68
2021/08/17 00:18:45;;;;;;;14.63;5.93;;;17.10;99.90;;;16.78;66.79;101600.16;5072943;28;19974;-68
2021/08/17 00:21:14;;;;;;;10.18;5.97;;;17.10;99.90;;;17.41;67.75;101709.50;5072903;28;20048;-68
2021/08/17 00:23:43;;;;;;;13.52;5.93;;;17.10;99.90;;;17.37;68.44;101705.13;5073515;28;20048;-68
2021/08/17 00:26:11;;;;;;;16.92;5.63;;;17.10;99.90;;;17.47;68.58;101714.75;5055321;28;20055;-68
2021/08/17 00:28:40;;;;;;;14.55;6.18;;;17.10;99.90;;;17.57;68.52;101713.69;5055476;28;20500;-68
2021/08/17 00:31:08;;;;;;;17.75;6.68;;;17.20;99.90;;;17.54;69.02;101698.56;5071978;28;20463;-68
2021/08/17 00:33:38;;;;;;;13.68;5.90;;;17.20;99.90;;;17.55;68.67;101700.34;5072879;28;20105;-70
2021/08/17 00:36:07;;;;;;;13.05;6.30;;;17.20;99.90;;;17.60;68.66;101701.13;5072887;28;20044;-69
2021/08/17 00:38:37;;;;;;;16.83;6.60;;;17.30;99.90;;;17.03;68.57;101588.09;5054877;28;20044;-68
2021/08/17 00:41:07;;;;;;;10.52;5.88;;;17.40;99.90;;;17.58;68.86;101694.94;5055212;28;20051;-68
2021/08/17 00:43:37;;;;;;;11.18;6.00;;;17.30;99.90;;;17.68;68.70;101700.97;5072826;28;20055;-68
2021/08/17 00:46:07;;;;;;;10.98;5.18;;;17.40;99.90;;;17.61;68.89;101692.22;5072879;28;20375;-68
2021/08/17 00:48:38;;;;;;;11.43;5.38;;;17.30;99.90;;;17.76;68.71;101693.69;5054959;28;20048;-68
2021/08/17 00:51:08;;;;;;;12.60;6.15;;;17.40;99.90;;;17.67;68.82;101681.34;5073036;28;20123;-68
2021/08/17 00:53:37;;;;;;;9.93;5.70;;;17.40;99.90;;;17.77;67.98;101687.41;5073031;28;20040;-69
2021/08/17 00:56:09;;;;;;;11.80;5.85;;;17.40;99.90;;;17.79;67.35;101678.44;5072744;28;20040;-68
2021/08/17 00:58:39;;;;;;;15.63;5.68;;;17.50;99.90;;;17.82;68.19;101681.06;5072426;28;20037;-70
2021/08/17 01:01:07;;;;;;;11.70;5.93;;;17.50;99.90;;;17.93;67.29;101681.69;5055150;28;20620;-70
2021/08/17 01:03:39;;;;;;;11.25;6.10;;;17.60;99.90;;;17.96;67.62;101675.41;5072545;28;20043;-70
2021/08/17 01:06:08;;;;;;;15.05;5.95;;;17.70;99.90;;;17.95;67.32;101682.56;5072621;28;20052;-70
2021/08/17 01:08:37;;;;;;;11.82;5.53;;;17.60;99.90;;;17.91;67.32;101688.00;5072619;28;20036;-70
2021/08/17 01:11:06;;;;;;;12.27;6.25;;;17.60;99.90;;;18.03;66.63;101685.06;5054530;28;20135;-70
2021/08/17 01:13:34;;;;;;;11.52;5.28;;;17.70;99.90;;;18.08;66.96;101691.19;5054816;28;20044;-70
2021/08/17 01:16:02;;;;;;;12.23;5.75;;;17.70;99.90;;;18.06;66.79;101682.31;5072444;28;20443;-70
2021/08/17 01:18:31;;;;;;;11.98;5.72;;;17.70;99.90;;;18.15;66.92;101690.16;5072434;28;20053;-70
2021/08/17 01:21:05;;;;;;;12.63;6.03;;;17.80;99.90;;;18.19;66.50;101693.63;5072586;28;20040;-70
2021/08/17 01:23:34;;;;;;;16.05;6.72;;;17.80;99.90;;;18.27;66.74;101697.03;5072680;28;20105;-70
2021/08/17 01:26:03;;;;;;;11.55;6.07;;;17.90;99.90;;;18.17;67.05;101693.69;5072555;28;20496;-70
2021/08/17 01:28:32;;;;;;;17.02;6.53;;;17.90;99.90;;;18.27;66.66;101702.38;5072379;28;20044;-70
2021/08/17 01:31:03;;;;;;;13.20;5.85;;;17.90;99.90;;;18.18;67.34;101706.13;5073598;28;20068;-70
2021/08/17 01:33:31;;;;;;;13.27;5.72;;;17.90;99.90;;;18.25;66.86;101704.22;5075908;28;20040;-70
2021/08/17 01:36:00;;;;;;;16.55;5.95;;;17.90;99.90;;;18.18;66.89;101705.25;5075846;28;20045;-70
2021/08/17 01:38:30;;;;;;;13.55;5.90;;;17.90;99.90;;;18.08;67.27;101701.03;5075691;28;20044;-70
2021/08/17 01:40:58;;;;;;;10.57;5.45;;;17.70;99.90;;;18.14;66.78;101715.16;5075630;28;20059;-70
2021/08/17 01:43:28;;;;;;;17.50;6.53;;;17.80;99.90;;;18.17;66.24;101704.41;5075705;28;20040;-70
2021/08/17 01:46:01;;;;;;;13.67;6.00;;;17.80;99.90;;;18.27;66.19;101711.31;5076278;28;20072;-70
2021/08/17 01:48:32;;;;;;;14.07;6.15;;;17.80;99.90;;;18.31;65.84;101710.28;5075649;28;20132;-71
2021/08/17 01:51:01;;;;;;;10.70;5.93;;;17.90;99.90;;;18.32;65.76;101703.16;5075893;28;20486;-70
2021/08/17 01:53:31;;;;;;;11.97;6.60;;;18.00;99.90;;;18.38;65.37;101706.59;5076084;28;20045;-70
2021/08/17 01:56:07;;;;;;;12.95;6.43;;;18.00;99.90;;;18.39;65.80;101707.47;5058065;28;20071;-70
2021/08/17 01:58:37;;;;;;;14.48;6.88;;;18.10;99.90;;;18.36;66.45;101704.84;5075726;28;20135;-70
2021/08/17 02:01:07;;;;;;;9.27;6.22;;;18.00;99.90;;;18.32;66.63;101700.47;5075628;28;20044;-70
2021/08/17 02:03:36;;;;;;;9.90;6.38;;;18.00;99.90;;;18.44;66.49;101695.75;5075640;28;20094;-71
2021/08/17 02:06:06;;;;;;;12.55;6.90;;;18.10;99.90;;;18.52;66.14;101696.47;5075310;28;20449;-70
2021/08/17 02:08:34;;;;;;;12.45;6.80;;;18.10;99.90;;;18.55;66.04;101701.75;5075194;28;20047;-71
2021/08/17 02:11:03;;;;;;;12.38;6.50;;;18.20;99.90;;;18.60;66.55;101697.13;5075169;28;20102;-70
2021/08/17 02:13:31;;;;;;;14.07;7.40;;;18.20;99.90;;;18.30;67.71;101697.84;5075719;28;20132;-70
2021/08/17 02:16:02;;;;;;;13.82;7.03;;;18.00;99.90;;;18.31;68.13;101704.94;5057468;28;20060;-70
2021/08/17 02:18:33;;;;;;;12.98;8.43;;;18.00;99.90;;;18.32;68.49;101698.69;5075150;28;20033;-70
2021/08/17 02:21:01;;;;;;;13.43;7.90;;;17.90;99.90;;;18.38;68.68;101693.19;5075370;28;20090;-70
2021/08/17 02:23:32;;;;;;;15.82;8.00;;;18.00;99.90;;;18.47;68.42;101694.78;5074978;28;20127;-70
2021/08/17 02:26:01;;;;;;;16.05;7.63;;;18.10;99.90;;;18.56;68.56;101684.72;5074945;28;20062;-70
2021/08/17 02:28:29;;;;;;;13.18;7.90;;;18.10;99.90;;;18.67;68.34;101681.81;5057407;28;20483;-70
2021/08/17 02:30:57;;;;;;;13.93;7.93;;;18.30;99.90;;;18.70;68.35;101679.03;5075105;28;20045;-70
2021/08/17 02:33:27;;;;;;;16.08;8.80;;;18.30;99.90;;;18.66;69.07;101680.91;5074750;28;20046;-70
2021/08/17 02:35:55;;;;;;;15.10;8.23;;;18.30;99.90;;;18.64;69.80;101679.22;5075069;28;20040;-70
2021/08/17 02:38:24;;;;;;;20.20;9.00;;;18.30;99.90;;;18.57;69.87;101654.34;5074765;28;20049;-70
2021/08/17 02:40:52;;;;;;;18.83;9.30;;;18.30;99.90;;;18.70;70.09;101670.97;5074576;28;20123;-70
2021/08/17 02:43:24;;;;;;;20.95;9.25;;;18.30;99.90;;;18.69;70.50;101680.84;5073718;28;20119;-70
2021/08/17 02:45:53;;;;;;;15.75;9.05;;;18.30;99.90;;;18.66;70.97;101686.28;5074551;28;20044;-70
2021/08/17 02:48:21;;;;;;;18.13;9.82;;;18.30;99.90;;;18.79;70.66;101682.34;5074468;28;20056;-70
2021/08/17 02:50:51;;;;;;;19.83;9.95;;;18.40;99.90;;;18.78;71.04;101682.41;5074423;28;20079;-70
2021/08/17 02:53:20;;;;;;;16.37;8.57;;;18.30;99.90;;;18.92;70.20;101685.63;5056653;28;20509;-70
2021/08/17 02:55:48;;;;;;;16.88;9.63;;;18.50;99.90;;;18.99;69.90;101671.13;5074620;28;20040;-70
2021/08/17 02:58:16;;;;;;;17.40;9.73;;;18.60;99.90;;;19.03;69.70;101669.28;5074270;28;20037;-71
2021/08/17 03:00:46;;;;;;;17.23;9.63;;;18.60;99.90;;;19.09;69.43;101669.09;5074134;28;20482;-70
2021/08/17 03:03:15;;;;;;;17.20;10.30;;;18.70;99.90;;;19.08;70.28;101667.34;5074189;28;20044;-70
2021/08/17 03:05:43;;;;;;;16.88;11.00;;;18.70;99.90;;;19.15;70.05;101669.81;5074133;28;20119;-70
2021/08/17 03:08:13;;;;;;;18.77;10.10;;;18.70;99.90;;;19.17;69.97;101675.13;5073951;28;20040;-71
2021/08/17 03:10:41;;;;;;;19.50;11.75;;;18.80;99.90;;;18.99;69.74;101640.78;5074028;28;20071;-70
2021/08/17 03:13:10;;;;;;;18.02;10.40;;;18.80;99.90;;;19.26;69.67;101670.41;5074218;28;20199;-70
2021/08/17 03:15:39;;;;;;;20.33;11.20;;;18.90;99.90;;;19.31;69.74;101667.59;5074491;28;20097;-70
2021/08/17 03:18:09;;;;;;;18.60;10.85;;;18.90;99.90;;;19.29;70.09;101670.31;5073818;28;20044;-70
2021/08/17 03:20:39;;;;;;;21.17;10.48;;;18.90;99.90;;;19.08;71.81;101668.22;5074236;28;20037;-70
2021/08/17 03:23:11;;;;;;;19.95;11.60;;;18.70;99.90;;;19.05;71.42;101649.50;5073778;28;20043;-70
2021/08/17 03:25:41;;;;;;;23.65;11.43;;;18.70;99.90;;;18.92;72.10;101654.34;5056143;28;20102;-70
2021/08/17 03:28:10;;;;;;;19.23;12.02;;;18.50;99.90;;;18.93;72.33;101663.25;5073806;28;20048;-70
2021/08/17 03:30:39;;;;;;;27.75;11.75;;;18.50;99.90;;;18.83;72.60;101651.88;5073594;28;20119;-70
2021/08/17 03:33:07;;;;;;;20.52;11.32;;;18.40;99.90;;;18.77;72.87;101654.75;5073603;28;20072;-70
2021/08/17 03:35:35;;;;;;;23.50;12.38;;;18.30;99.90;;;18.68;72.89;101646.91;5073890;28;20060;-70
2021/08/17 03:38:04;;;;;;;26.45;12.05;;;18.40;99.90;;;18.74;72.89;101644.06;5073540;28;20033;-70
2021/08/17 03:40:32;;;;;;;19.45;11.98;;;18.30;99.90;;;18.80;72.73;101654.66;5073374;28;20123;-70
2021/08/17 03:43:02;;;;;;;23.02;12.88;;;18.30;99.90;;;18.71;73.06;101657.56;5073686;28;20113;-70
2021/08/17 03:45:31;;;;;;;20.30;12.27;;;18.30;99.90;;;18.68;73.30;101654.94;5074019;28;20048;-70
2021/08/17 03:47:59;;;;;;;22.20;12.45;;;18.20;99.90;;;18.70;73.45;101642.38;5073147;28;21238;-70
2021/08/17 03:50:27;;;;;;;22.27;13.05;;;18.20;99.90;;;18.57;73.92;101648.09;5055681;28;20056;-70
2021/08/17 03:52:56;;;;;;;25.45;13.85;;;18.10;99.90;;;18.56;73.27;101644.53;5073689;28;20081;-71
2021/08/17 03:55:24;;;;;;;23.90;13.88;;;18.10;99.90;;;18.47;73.78;101631.38;5073681;28;20102;-70
2021/08/17 03:57:53;;;;;;;24.42;13.48;;;18.10;99.90;;;18.49;74.00;101645.59;5073260;28;20047;-70
2021/08/17 04:00:26;;;;;;;23.50;13.88;;;18.00;99.90;;;18.55;73.90;101644.56;5073654;28;20114;-71
2021/08/17 04:02:54;;;;;;;25.05;14.20;;;18.10;99.90;;;18.54;73.82;101637.47;5073777;28;20502;-71
2021/08/17 04:05:24;;;;;;;26.00;14.57;;;18.10;99.90;;;18.43;74.06;101653.78;5073683;28;20067;-70
2021/08/17 04:07:52;;;;;;;23.48;13.27;;;18.00;99.90;;;18.12;74.36;101631.28;5073350;28;20045;-69
2021/08/17 04:10:22;;;;;;;26.10;14.13;;;17.90;99.90;;;18.25;74.94;101653.31;5073552;28;20047;-72
2021/08/17 04:12:51;;;;;;;27.38;14.20;;;17.90;99.90;;;18.36;74.96;101656.63;5073024;28;20123;-71
2021/08/17 04:15:19;;;;;;;22.75;12.68;;;17.90;99.90;;;18.36;74.47;101653.94;5073304;28;20393;-71
2021/08/17 04:17:49;;;;;;;24.88;12.90;;;17.90;99.90;;;18.30;74.63;101665.69;5073049;28;20068;-73
2021/08/17 04:20:18;;;;;;;23.52;12.55;;;17.90;99.90;;;18.45;74.53;101665.34;5073105;28;20040;-74
2021/08/17 04:22:46;;;;;;;23.55;13.32;;;18.00;99.90;;;18.44;74.70;101663.59;5072897;28;20432;-75
2021/08/17 04:25:15;;;;;;;24.40;13.25;;;18.10;99.90;;;18.55;74.36;101663.34;5072861;28;20040;-75
2021/08/17 04:27:43;;;;;;;21.38;12.45;;;18.10;99.90;;;18.67;73.93;101655.00;5073230;28;20045;-75
2021/08/17 04:30:13;;;;;;;25.15;11.90;;;18.20;99.90;;;18.69;73.43;101661.19;5073423;28;20052;-75
2021/08/17 04:32:42;;;;;;;20.95;11.68;;;18.30;99.90;;;18.79;73.25;101666.28;5072881;28;20066;-74
2021/08/17 04:35:12;;;;;;;22.05;12.02;;;18.40;99.90;;;18.67;73.84;101666.59;5072892;28;20040;-74
2021/08/17 04:37:40;;;;;;;20.10;11.77;;;18.30;99.90;;;18.72;73.70;101664.69;5055251;28;20068;-75
2021/08/17 04:40:11;;;;;;;22.98;12.85;;;18.30;99.90;;;18.79;73.79;101658.22;5072659;28;20478;-74
2021/08/17 04:42:40;;;;;;;19.98;11.77;;;18.40;99.90;;;18.88;73.57;101660.69;5055098;28;20080;-75
2021/08/17 04:45:09;;;;;;;24.15;12.90;;;18.50;99.90;;;18.91;73.01;101659.75;5072720;28;20554;-75
2021/08/17 04:47:45;;;;;;;25.88;12.27;;;18.50;99.90;;;19.00;72.89;101663.97;5072693;28;20055;-75
2021/08/17 04:50:23;;;;;;;22.23;12.50;;;18.60;99.90;;;18.99;72.49;101652.34;5072791;28;20043;-75
2021/08/17 04:52:52;;;;;;;23.40;13.10;;;18.70;99.90;;;19.05;72.60;101648.66;5072679;28;20094;-74
2021/08/17 04:55:21;;;;;;;24.20;13.75;;;18.70;99.90;;;19.04;73.15;101650.44;5072640;28;20045;-75
2021/08/17 04:57:52;;;;;;;24.00;14.05;;;18.70;99.90;;;19.03;73.37;101646.00;5072697;28;20144;-74
2021/08/17 05:00:23;;;;;;;26.67;13.15;;;18.70;99.90;;;19.06;73.65;101645.94;5072710;28;20484;-74
2021/08/17 05:02:51;;;;;;;26.73;13.75;;;18.70;99.90;;;18.99;74.01;101646.13;5072498;28;20441;-75
2021/08/17 05:05:20;;;;;;;25.27;14.70;;;18.60;99.90;;;18.85;74.65;101644.66;5072885;28;20524;-75
2021/08/17 05:07:51;;;;;;;29.92;14.68;;;18.50;99.90;;;18.85;74.48;101650.03;5076791;28;20044;-75
2021/08/17 05:10:22;;;;;;;27.20;13.73;;;18.50;99.90;;;19.01;74.38;101647.84;5076748;28;20129;-75
2021/08/17 05:12:51;;;;;;;21.40;13.05;;;18.60;99.90;;;19.09;74.05;101653.88;5076328;28;20555;-75
2021/08/17 05:15:19;;;;;;;25.05;13.27;;;18.70;99.90;;;19.02;73.90;101651.41;5058272;28;20059;-74
2021/08/17 05:17:48;;;;;;;28.95;13.32;;;18.60;99.90;;;19.01;73.57;101644.28;5076174;28;20064;-75
2021/08/17 05:20:17;;;;;;;27.67;13.18;;;18.70;99.90;;;19.05;73.25;101654.03;5058436;28;20059;-75
2021/08/17 05:22:46;;;;;;;21.58;12.00;;;18.70;99.90;;;19.08;72.97;101660.19;5075863;28;20052;-75
2021/08/17 05:25:16;;;;;;;27.23;12.82;;;18.70;99.90;;;18.98;72.97;101644.34;5075995;28;20115;-75
2021/08/17 05:27:49;;;;;;;19.40;11.57;;;18.70;99.90;;;19.08;72.70;101643.19;5076329;28;20104;-75
2021/08/17 05:30:19;;;;;;;19.02;11.93;;;18.80;99.90;;;19.07;72.43;101646.78;5076077;28;20067;-75
2021/08/17 05:32:48;;;;;;;20.90;11.85;;;18.80;99.90;;;19.11;72.38;101645.78;5076174;28;20123;-75
2021/08/17 05:35:16;;;;;;;19.45;11.30;;;18.80;99.90;;;19.05;72.47;101644.16;5075813;28;20509;-74
2021/08/17 05:37:45;;;;;;;18.27;11.27;;;18.70;99.90;;;19.09;72.50;101644.94;5076105;28;20075;-74
2021/08/17 05:40:15;;;;;;;21.00;10.57;;;18.80;99.90;;;19.15;72.68;101655.50;5075908;28;20064;-74
2021/08/17 05:42:44;;;;;;;20.38;11.40;;;18.80;99.90;;;19.22;72.33;101649.06;5076072;28;20485;-75
2021/08/17 05:45:13;;;;;;;25.73;11.02;;;18.80;99.90;;;19.19;72.60;101646.47;5075905;28;20067;-75
2021/08/17 05:47:44;;;;;;;22.77;10.52;;;18.80;99.90;;;19.17;72.74;101637.56;5074344;28;20578;-74
2021/08/17 05:50:13;;;;;;;18.95;10.73;;;18.80;99.90;;;19.08;72.59;101608.34;5076175;28;20478;-75
2021/08/17 05:52:43;;;;;;;19.77;10.63;;;18.80;99.90;;;19.23;72.54;101634.72;5075803;28;20068;-75
2021/08/17 05:55:13;;;;;;;22.35;10.82;;;18.80;99.90;;;19.04;73.07;101614.69;5057709;28;20053;-75
2021/08/17 05:57:54;;;;;;;16.88;9.18;;;18.80;99.90;;;18.67;73.08;101548.66;5057703;28;20076;-75
2021/08/17 06:00:22;;;;;;;20.10;10.88;;;18.80;99.90;;;19.21;73.35;101639.25;5075424;28;20075;-75
2021/08/17 06:02:51;;;;;;;22.58;10.82;;;18.80;99.90;;;19.23;73.20;101643.66;5075260;28;20114;-75
2021/08/17 06:05:20;;;;;;;17.85;9.93;;;18.80;99.90;;;19.19;73.26;101619.63;5075527;28;20055;-75
2021/08/17 06:07:51;;;;;;;18.50;10.20;;;18.90;99.90;;;19.26;72.82;101635.50;5057554;28;20036;-74
2021/08/17 06:10:20;;;;;;;;;;;18.90;99.90;;;19.37;72.44;101641.53;5057929;28;20059;-75
2021/08/17 06:12:49;;;;;;;18.50;11.32;;;19.00;99.90;;;19.42;72.42;101641.38;5075218;28;19921;-74
2021/08/17 06:15:18;;;;;;;18.37;10.83;;;19.00;99.90;;;19.36;72.30;101638.84;5075099;28;20482;-74
2021/08/17 06:17:47;;;;;;;21.17;9.80;;;19.00;99.90;;;19.41;72.05;101656.63;5075138;28;20041;-74
2021/08/17 06:20:17;;;;;;;19.25;10.35;;;19.00;99.90;;;19.47;71.71;101647.50;5075471;28;20037;-75
2021/08/17 06:22:46;;;;;;;20.33;10.68;;;19.10;99.90;;;19.53;71.33;101647.34;5075137;28;20032;-74
2021/08/17 06:25:14;;;;;;;19.90;11.00;;;19.10;99.90;;;19.51;71.03;101649.19;5074931;28;20040;-75
2021/08/17 06:27:42;;;;;;;15.70;9.90;;;19.10;99.90;;;19.40;71.27;101645.91;5057144;28;20551;-75
2021/08/17 06:30:13;;;;;;;22.95;11.13;;;19.10;99.90;;;19.30;71.07;101631.81;5075415;28;20102;-75
2021/08/17 06:32:54;;;;;;;19.42;9.80;;;19.00;99.90;;;19.32;71.39;101662.22;5075150;28;20049;-75
2021/08/17 06:35:23;;;;;;;19.05;10.45;;;19.00;99.90;;;19.38;71.74;101663.84;5074598;28;20432;-75
2021/08/17 06:37:52;;;;;;;18.08;10.02;;;19.00;99.90;;;19.40;70.86;101668.25;5075165;28;20044;-74
2021/08/17 06:40:21;;;;;;;17.98;10.07;;;19.00;99.90;;;19.21;71.32;101674.13;5073292;28;20056;-75
2021/08/17 06:42:50;;;;;;;17.35;10.07;;;18.90;99.90;;;19.06;71.92;101653.09;5074419;28;20117;-75
2021/08/17 06:45:21;;;;;;;20.10;10.63;;;18.80;99.90;;;19.28;71.32;101673.06;5074356;28;20044;-75
2021/08/17 06:47:53;;;;;;;14.77;9.60;;;18.90;99.90;;;19.22;71.64;101668.72;5074289;28;20055;-74
2021/08/17 06:50:41;;;;;;;17.15;9.35;;;18.80;99.90;;;19.20;70.97;101659.81;5074379;28;20098;-74
2021/08/17 06:53:10;;;;;;;19.27;8.95;;;18.90;99.90;;;19.15;70.77;101651.03;5074603;28;20064;-74
2021/08/17 06:55:38;;;;;;;15.65;9.07;;;18.80;99.90;;;19.06;70.30;101653.97;5074236;28;20044;-75
2021/08/17 06:58:12;;;;;;;20.05;9.75;;;18.80;99.90;;;18.99;71.15;101659.53;5056576;28;20049;-75
2021/08/17 07:00:42;;;;;;;18.73;9.50;;;18.70;99.90;;;18.86;71.63;101654.50;5074495;28;20048;-75
2021/08/17 07:03:12;;;;;;;17.05;9.05;;;18.70;99.90;;;18.92;71.57;101666.84;5074402;28;20044;-74
2021/08/17 07:05:45;;;;;;;17.90;8.90;;;18.60;99.90;;;19.00;71.17;101663.97;5073996;28;20040;-75
2021/08/17 07:08:14;;;;;;;16.52;9.48;;;18.60;99.90;;;19.13;70.67;101650.19;5073996;28;20097;-75
2021/08/17 07:10:44;;;;;;;15.80;9.75;;;18.70;99.90;;;19.18;70.36;101652.75;5074202;28;20051;-75
2021/08/17 07:13:25;;;;;;;19.13;9.52;;;18.80;99.90;;;19.03;70.70;101647.81;5074118;28;20131;-70
2021/08/17 07:15:56;;;;;;;16.13;9.20;;;18.70;99.90;;;19.09;70.58;101644.94;5074149;28;20036;-70
2021/08/17 07:18:25;;;;;;;20.13;8.30;;;18.70;99.90;;;19.17;70.46;101653.66;5074138;28;20051;-70
2021/08/17 07:20:54;;;;;;;13.40;8.82;;;18.80;99.90;;;19.02;70.20;101640.69;5073730;28;20123;-70
2021/08/17 07:23:22;;;;;;;17.05;9.82;;;18.70;99.90;;;18.98;70.18;101636.31;5055829;28;20079;-71
2021/08/17 07:25:51;;;;;;;17.60;9.15;;;18.60;99.90;;;18.87;69.95;101631.25;5073790;28;20075;-71
2021/08/17 07:28:20;;;;;;;18.08;9.20;;;18.50;99.90;;;18.93;70.09;101631.06;5055201;28;20045;-71
2021/08/17 07:30:48;;;;;;;18.25;9.52;;;18.50;99.90;;;19.09;69.94;101632.41;5073884;28;20118;-71
2021/08/17 07:33:19;;;;;;;15.48;9.25;;;18.60;99.90;;;19.11;69.78;101614.47;5073487;28;20413;-70
2021/08/17 07:35:47;;;;;;;17.30;9.65;;;18.80;99.90;;;19.09;69.67;101629.75;5055862;28;20127;-71
2021/08/17 07:38:16;;;;;;;17.77;8.75;;;18.80;99.90;;;19.26;69.52;101638.19;5073402;28;20048;-71
2021/08/17 07:40:44;;;;;;;16.77;8.77;;;18.80;99.90;;;19.32;69.65;101640.75;5073426;28;20048;-71
2021/08/17 07:43:13;;;;;;;14.48;8.98;;;18.90;99.90;;;19.21;68.03;101623.16;5073260;28;20124;-71
2021/08/17 07:45:42;;;;;;;14.32;8.18;;;19.00;99.90;;;19.19;67.49;101651.81;5073626;28;20044;-72
2021/08/17 07:48:32;;;;;;;13.00;7.63;;;18.90;99.90;;;19.16;66.82;101642.09;5072902;28;20092;-71
2021/08/17 07:51:01;;;;;;;13.30;8.15;;;18.80;99.90;;;19.19;66.99;101643.78;5073591;28;20052;-71
2021/08/17 07:53:29;;;;;;;12.85;8.10;;;18.80;99.90;;;19.18;67.24;101642.03;5073346;28;20482;-75
2021/08/17 07:55:58;;;;;;;13.88;7.78;;;18.80;99.90;;;19.34;67.46;101630.84;5073245;28;20071;-75
2021/08/17 07:58:27;;;;;;;11.57;6.78;;;19.00;99.90;;;19.36;67.48;101647.78;5073263;28;20070;-75
2021/08/17 08:00:55;;;;;;;15.18;7.50;;;19.00;99.90;;;19.01;67.20;101626.38;5055622;28;20358;-74
2021/08/17 08:03:24;;;;;;;12.68;7.88;;;18.90;99.90;;;19.19;67.44;101659.88;5073177;28;20083;-74
2021/08/17 08:05:54;;;;;;;12.02;8.07;;;18.90;99.90;;;18.96;67.73;101659.59;5072980;28;20037;-74
2021/08/17 08:08:23;;;;;;;12.27;7.25;;;18.70;99.90;;;19.01;67.56;101665.75;5072998;28;20482;-73
2021/08/17 08:10:51;;;;;;;12.10;7.47;;;18.70;99.90;;;19.04;67.78;101649.56;5073066;28;20044;-74
2021/08/17 08:13:20;;;;;;;12.82;6.82;;;18.70;99.90;;;19.06;67.52;101640.56;5072982;28;20047;-74
2021/08/17 08:15:49;;;;;;;16.08;7.13;;;18.70;99.90;;;19.00;67.66;101638.03;5072997;28;20041;-73
2021/08/17 08:18:18;;;;;;;14.10;6.90;;;18.70;99.90;;;18.94;68.13;101630.16;5073189;28;20108;-73
2021/08/17 08:20:47;;;;;;;14.00;7.38;;;18.70;99.90;;;18.93;68.06;101640.00;5073461;28;20074;-74
2021/08/17 08:23:17;;;;;;;9.77;7.10;;;18.60;99.90;;;18.96;67.91;101656.94;5071466;28;20047;-73
2021/08/17 08:25:45;;;;;;;11.90;7.60;;;18.60;99.90;;;18.98;68.54;101655.97;5055186;28;20441;-73
2021/08/17 08:28:17;;;;;;;14.65;6.93;;;18.60;99.90;;;19.05;68.09;101651.34;5072841;28;20036;-73
2021/08/17 08:30:46;;;;;;;11.57;6.28;;;18.70;99.90;;;18.98;67.74;101663.13;5072954;28;20041;-73
2021/08/17 08:33:14;;;;;;;11.57;7.00;;;18.70;99.90;;;19.02;67.21;101644.25;5072557;28;20071;-74
2021/08/17 08:35:43;;;;;;;13.88;7.40;;;18.70;99.90;;;19.07;67.20;101666.44;5072955;28;20064;-74
2021/08/17 08:38:11;;;;;;;11.85;6.90;;;18.70;99.90;;;19.04;66.98;101671.03;5072647;28;20037;-73
2021/08/17 08:40:46;;;;;;;12.20;6.20;;;18.70;99.90;;;18.98;67.27;101700.66;5075763;28;20040;-74
2021/08/17 08:43:17;;;;;;;13.32;7.45;;;18.60;99.90;;;18.91;67.56;101687.41;5077022;28;20113;-73
2021/08/17 08:45:47;;;;;;;10.73;6.72;;;18.60;99.90;;;18.92;67.92;101691.00;5076921;28;20066;-73
2021/08/17 08:48:19;;;;;;;12.93;7.40;;;18.70;99.90;;;18.98;68.28;101677.44;5076727;28;20449;-73
2021/08/17 08:50:48;;;;;;;13.40;6.70;;;18.60;99.90;;;18.99;68.17;101675.63;5077023;28;20057;-73
2021/08/17 08:53:19;;;;;;;12.40;6.85;;;18.70;99.90;;;18.98;68.30;101668.50;5076916;28;20072;-73
2021/08/17 08:55:50;;;;;;;10.82;6.47;;;18.70;99.90;;;19.10;68.27;101679.78;5076605;28;20490;-73
2021/08/17 08:58:18;;;;;;;9.82;5.90;;;18.80;99.90;;;18.97;68.12;101685.53;5076531;28;20379;-73
2021/08/17 09:00:47;;;;;;;11.48;6.72;;;18.70;99.90;;;18.89;67.49;101680.34;5076265;28;20068;-72
2021/08/17 09:03:17;;;;;;;9.63;6.25;;;18.60;99.90;;;18.90;67.61;101679.41;5076342;28;20036;-72
2021/08/17 09:05:53;;;;;;;9.93;6.18;;;18.60;99.90;;;18.89;67.53;101662.44;5076473;28;20119;-72
2021/08/17 09:08:29;;;;;;;9.27;5.88;;;18.60;99.90;;;18.93;67.39;101657.88;5076687;28;20041;-72
2021/08/17 09:11:19;;;;;;;12.82;6.00;;;18.60;99.90;;;18.87;67.16;101631.25;5076711;28;20044;-72
2021/08/17 09:13:48;;;;;;;12.20;6.00;;;18.70;99.90;;;18.90;67.49;101652.59;5076517;28;20094;-72
2021/08/17 09:16:32;;;;;;;15.52;6.38;;;18.60;99.90;;;19.03;67.64;101654.03;5076343;28;20068;-72
2021/08/17 09:19:03;;;;;;;10.35;6.88;;;18.70;99.90;;;19.16;67.92;101654.59;5076258;28;20170;-72
2021/08/17 09:21:39;;;;;;;11.38;6.90;;;18.80;99.90;;;19.16;67.52;101650.13;5076496;28;20087;-72
2021/08/17 09:24:16;;;;;;;12.57;6.72;;;18.80;99.90;;;18.99;67.29;101651.50;5075907;28;20041;-72
2021/08/17 09:26:52;;;;;;;8.90;5.85;;;18.70;99.90;;;18.96;67.27;101656.94;5075988;28;20036;-72
2021/08/17 09:29:35;;;;;;;10.18;5.90;;;18.60;99.90;;;18.90;67.63;101674.06;5076265;28;20045;-72
2021/08/17 09:32:14;;;;;;;8.15;5.40;;;18.60;99.90;;;18.74;69.15;101660.16;5076260;28;20070;-72
2021/08/17 09:34:46;;;;;;;7.73;5.50;;;18.50;99.90;;;18.52;70.90;101671.47;5058294;28;20498;-72
2021/08/17 09:37:15;;;;;;;9.18;5.82;;;18.20;99.90;;;18.51;71.67;101672.34;5075841;28;20047;-72
2021/08/17 09:39:46;;;;;;;10.27;7.18;;;18.20;99.90;;;18.56;72.50;101668.66;5075824;28;20571;-72
2021/08/17 09:42:20;;;;;;;9.65;6.65;;;18.20;99.90;;;18.63;73.07;101672.06;5076328;28;20132;-72
2021/08/17 09:45:09;;;;;;;11.38;7.20;;;18.30;99.90;;;18.57;73.65;101674.91;5058050;28;20129;-72
2021/08/17 09:47:40;;;;;;;10.48;6.78;;;18.20;99.90;;;18.56;74.29;101663.28;5075613;28;20067;-72
2021/08/17 09:50:22;;;;;;;9.15;7.45;;;18.20;99.90;;;18.66;74.53;101654.09;5075649;28;20694;-72
2021/08/17 09:53:07;;;;;;;12.57;8.25;;;18.30;99.90;;;18.61;74.75;101644.44;5075224;28;20045;-72
2021/08/17 09:55:47;;;;;;;9.57;7.30;;;18.20;99.90;;;18.68;75.07;101660.31;5075575;28;20398;-72
2021/08/17 09:58:27;;;;;;;8.75;6.57;;;18.30;99.90;;;18.53;75.53;101658.00;5076059;28;20047;-72
2021/08/17 10:00:59;;;;;;;8.60;6.80;;;18.20;99.90;;;18.56;75.90;101657.06;5075832;28;20075;-72
2021/08/17 10:03:29;;;;;;;9.50;6.25;;;18.10;99.90;;;18.61;75.96;101652.47;5075470;28;20132;-72
2021/08/17 10:06:00;;;;;;;11.15;6.38;;;18.20;99.90;;;18.60;76.31;101648.03;5057717;28;20066;-72
2021/08/17 10:08:34;;;;;;;8.33;6.80;;;18.20;99.90;;;18.61;76.34;101639.06;5075552;28;20462;-72
2021/08/17 10:11:03;;;;;;;9.38;6.00;;;18.20;99.90;;;18.66;76.27;101640.72;5075820;28;20041;-72
2021/08/17 10:13:37;;;;;;;9.27;6.63;;;18.20;99.90;;;18.62;76.69;101625.63;5075541;28;20401;-72
2021/08/17 10:16:06;;;;;;;9.98;6.38;;;18.30;99.90;;;18.61;76.98;101639.06;5074192;28;20068;-72
2021/08/17 10:18:41;;;;;;;10.35;6.43;;;18.20;99.90;;;18.56;77.47;101636.50;5075708;28;20556;-72